PWSweather.com
Personal Weather Stations
Station Observations
ZYBORSKI
Fromes HillGB hr8 1

Fromes HillGB hr8 1

Lat: 52.1172558, Lon: -2.4749163

Elevation: 0

Station Type: FineOffset

High Low Average
Temperature 38.8°F3.8°F 35.2°F1.8°F 36.7°F2.6°F
Dew Point 38.6°F3.7°F 35.0°F1.7°F 36.5°F2.5°F
Winds 11.4 mph ENE18.3 mph ENE Calm Calm 1.2 mph 1.9 mph
Wind Gusts 19.7 mph31.7 mph -- 7.7 mph12.4 mph
Humidity 99% 99% 99%
Pressure 29.55 in1000.70 in 29.33 in993.20 in -
Precipitation 0.12 in3.00 in - -
Hour Temp Dew Point Humidity Winds Wind Gusts Pressure Precip Precip Rate Daily Precip Total
12:00 AM 37.2°F2.9°C 37.0°F2.8°C 99% Calm Calm 2.2 mph3.5 kmh 29.55 in1000.7 mb 0.00 in0.0 mm 0.00 in0.0 mm 0.00 in0.0 mm
12:15 AM 37.2°F2.9°C 37.0°F2.8°C 99% Calm Calm 0.7 mph1.1 kmh 29.55 in1000.7 mb 0.00 in0.0 mm 0.00 in0.0 mm 0.00 in0.0 mm
12:30 AM 37.4°F3.0°C 37.1°F2.8°C 99% Calm Calm -- 29.54 in1000.3 mb 0.00 in0.0 mm 0.00 in0.0 mm 0.00 in0.0 mm
12:45 AM 37.4°F3.0°C 37.1°F2.8°C 99% Calm Calm 0.7 mph1.1 kmh 29.53 in1000.0 mb 0.00 in0.0 mm 0.00 in0.0 mm 0.00 in0.0 mm
01:00 AM 37.4°F3.0°C 37.1°F2.8°C 99% Calm Calm 0.7 mph1.1 kmh 29.52 in999.7 mb 0.00 in0.0 mm 0.00 in0.0 mm 0.00 in0.0 mm
01:15 AM 37.2°F2.9°C 37.0°F2.8°C 99% Calm Calm 6.9 mph11.1 kmh 29.51 in999.3 mb 0.00 in0.0 mm 0.00 in0.0 mm 0.00 in0.0 mm
01:30 AM 37.2°F2.9°C 37.0°F2.8°C 99% Calm Calm 0.7 mph1.1 kmh 29.50 in999.0 mb 0.00 in0.0 mm 0.00 in0.0 mm 0.00 in0.0 mm
01:45 AM 37.4°F3.0°C 37.1°F2.8°C 99% Calm Calm 1.6 mph2.6 kmh 29.50 in999.0 mb 0.00 in0.0 mm 0.00 in0.0 mm 0.00 in0.0 mm
02:00 AM 37.2°F2.9°C 37.0°F2.8°C 99% Calm Calm 3.1 mph5.0 kmh 29.49 in998.6 mb 0.00 in0.0 mm 0.00 in0.0 mm 0.00 in0.0 mm
02:15 AM 37.4°F3.0°C 37.1°F2.8°C 99% Calm Calm 4.5 mph7.2 kmh 29.48 in998.3 mb 0.00 in0.0 mm 0.00 in0.0 mm 0.00 in0.0 mm
02:30 AM 37.4°F3.0°C 37.1°F2.8°C 99% Calm Calm 0.7 mph1.1 kmh 29.48 in998.3 mb 0.00 in0.0 mm 0.00 in0.0 mm 0.00 in0.0 mm
02:45 AM 37.0°F2.8°C 36.8°F2.7°C 99% Calm Calm 3.1 mph5.0 kmh 29.46 in997.6 mb 0.00 in0.0 mm 0.00 in0.0 mm 0.00 in0.0 mm
03:00 AM 37.0°F2.8°C 36.8°F2.7°C 99% 0.7 mph E1.1 kmh E 4.5 mph7.2 kmh 29.46 in997.6 mb 0.00 in0.0 mm 0.00 in0.0 mm 0.00 in0.0 mm
03:15 AM 37.0°F2.8°C 36.8°F2.7°C 99% Calm Calm 5.4 mph8.7 kmh 29.45 in997.3 mb 0.00 in0.0 mm 0.00 in0.0 mm 0.00 in0.0 mm
03:30 AM 36.7°F2.6°C 36.4°F2.4°C 99% Calm Calm 3.8 mph6.1 kmh 29.45 in997.3 mb 0.00 in0.0 mm 0.00 in0.0 mm 0.00 in0.0 mm
03:45 AM 36.7°F2.6°C 36.4°F2.4°C 99% Calm Calm 7.6 mph12.2 kmh 29.44 in997.0 mb 0.00 in0.0 mm 0.00 in0.0 mm 0.00 in0.0 mm
04:00 AM 36.5°F2.5°C 36.2°F2.3°C 99% Calm Calm 7.6 mph12.2 kmh 29.44 in997.0 mb 0.00 in0.0 mm 0.00 in0.0 mm 0.00 in0.0 mm
04:15 AM 36.7°F2.6°C 36.4°F2.4°C 99% Calm Calm 7.6 mph12.2 kmh 29.42 in996.3 mb 0.00 in0.0 mm 0.00 in0.0 mm 0.00 in0.0 mm
04:30 AM 36.7°F2.6°C 36.4°F2.4°C 99% Calm Calm 7.6 mph12.2 kmh 29.41 in995.9 mb 0.00 in0.0 mm 0.00 in0.0 mm 0.00 in0.0 mm
04:45 AM 36.1°F2.3°C 35.9°F2.2°C 99% Calm Calm 8.3 mph13.4 kmh 29.41 in995.9 mb 0.00 in0.0 mm 0.00 in0.0 mm 0.00 in0.0 mm
05:00 AM 36.0°F2.2°C 35.7°F2.1°C 99% 2.2 mph NE3.5 kmh NE 10.7 mph17.2 kmh 29.40 in995.6 mb 0.00 in0.0 mm 0.00 in0.0 mm 0.00 in0.0 mm
05:15 AM 36.0°F2.2°C 35.7°F2.1°C 99% 1.6 mph ENE2.6 kmh ENE 11.4 mph18.3 kmh 29.39 in995.3 mb 0.00 in0.0 mm 0.00 in0.0 mm 0.00 in0.0 mm
05:30 AM 36.1°F2.3°C 35.9°F2.2°C 99% 1.6 mph ENE2.6 kmh ENE 15.9 mph25.6 kmh 29.38 in994.9 mb 0.00 in0.0 mm 0.00 in0.0 mm 0.00 in0.0 mm
05:45 AM 36.1°F2.3°C 35.9°F2.2°C 99% 3.8 mph NNE6.1 kmh NNE 11.4 mph18.3 kmh 29.38 in994.9 mb 0.00 in0.0 mm 0.00 in0.0 mm 0.00 in0.0 mm
06:00 AM 36.1°F2.3°C 35.9°F2.2°C 99% 1.6 mph E2.6 kmh E 9.2 mph14.8 kmh 29.37 in994.6 mb 0.00 in0.0 mm 0.00 in0.0 mm 0.00 in0.0 mm
06:15 AM 36.1°F2.3°C 35.9°F2.2°C 99% 3.8 mph NE6.1 kmh NE 11.4 mph18.3 kmh 29.36 in994.2 mb 0.00 in0.0 mm 0.00 in0.0 mm 0.00 in0.0 mm
06:30 AM 36.0°F2.2°C 35.7°F2.1°C 99% Calm Calm 11.4 mph18.3 kmh 29.35 in993.9 mb 0.00 in0.0 mm 0.00 in0.0 mm 0.00 in0.0 mm
06:45 AM 36.0°F2.2°C 35.7°F2.1°C 99% 3.1 mph ENE5.0 kmh ENE 12.1 mph19.5 kmh 29.34 in993.6 mb 0.00 in0.0 mm 0.00 in0.0 mm 0.00 in0.0 mm
07:00 AM 36.1°F2.3°C 35.9°F2.2°C 99% 2.2 mph ENE3.5 kmh ENE 13.6 mph21.9 kmh 29.34 in993.6 mb 0.00 in0.0 mm 0.00 in0.0 mm 0.00 in0.0 mm
07:15 AM 36.0°F2.2°C 35.7°F2.1°C 99% 3.1 mph E5.0 kmh E 15.2 mph24.5 kmh 29.34 in993.6 mb 0.00 in0.0 mm 0.00 in0.0 mm 0.00 in0.0 mm
07:30 AM 35.8°F2.1°C 35.5°F1.9°C 99% 2.2 mph NE3.5 kmh NE 16.8 mph27.0 kmh 29.34 in993.6 mb 0.00 in0.0 mm 0.00 in0.0 mm 0.00 in0.0 mm
07:45 AM 35.8°F2.1°C 35.5°F1.9°C 99% 3.8 mph E6.1 kmh E 18.3 mph29.5 kmh 29.34 in993.6 mb 0.00 in0.0 mm 0.00 in0.0 mm 0.00 in0.0 mm
08:00 AM 35.6°F2.0°C 35.4°F1.9°C 99% 7.6 mph NE12.2 kmh NE 17.4 mph28.0 kmh 29.33 in993.2 mb 0.00 in0.0 mm 0.00 in0.0 mm 0.00 in0.0 mm
08:15 AM 35.6°F2.0°C 35.4°F1.9°C 99% 4.5 mph E7.2 kmh E 15.9 mph25.6 kmh 29.33 in993.2 mb 0.00 in0.0 mm 0.00 in0.0 mm 0.00 in0.0 mm
08:30 AM 35.6°F2.0°C 35.4°F1.9°C 99% 4.5 mph NE7.2 kmh NE 13.6 mph21.9 kmh 29.33 in993.2 mb 0.00 in0.0 mm 0.00 in0.0 mm 0.00 in0.0 mm
08:45 AM 35.6°F2.0°C 35.4°F1.9°C 99% 0.7 mph NE1.1 kmh NE 12.1 mph19.5 kmh 29.33 in993.2 mb 0.00 in0.0 mm 0.00 in0.0 mm 0.00 in0.0 mm
09:00 AM 35.8°F2.1°C 35.5°F1.9°C 99% 2.2 mph ENE3.5 kmh ENE 15.2 mph24.5 kmh 29.33 in993.2 mb 0.00 in0.0 mm 0.00 in0.0 mm 0.00 in0.0 mm
09:15 AM 36.0°F2.2°C 35.7°F2.1°C 99% 6.0 mph NE9.7 kmh NE 15.9 mph25.6 kmh 29.33 in993.2 mb 0.00 in0.0 mm 0.00 in0.0 mm 0.00 in0.0 mm
09:30 AM 36.0°F2.2°C 35.7°F2.1°C 99% 3.8 mph NE6.1 kmh NE 19.0 mph30.6 kmh 29.33 in993.2 mb 0.00 in0.0 mm 0.00 in0.0 mm 0.00 in0.0 mm
09:45 AM 36.1°F2.3°C 35.9°F2.2°C 99% 1.6 mph E2.6 kmh E 16.8 mph27.0 kmh 29.33 in993.2 mb 0.00 in0.0 mm 0.00 in0.0 mm 0.00 in0.0 mm
10:00 AM 36.3°F2.4°C 36.1°F2.3°C 99% 6.0 mph ENE9.7 kmh ENE 17.4 mph28.0 kmh 29.33 in993.2 mb 0.00 in0.0 mm 0.00 in0.0 mm 0.00 in0.0 mm
10:15 AM 36.7°F2.6°C 36.4°F2.4°C 99% 0.7 mph NE1.1 kmh NE 14.5 mph23.3 kmh 29.34 in993.6 mb 0.00 in0.0 mm 0.00 in0.0 mm 0.00 in0.0 mm
10:30 AM 36.9°F2.7°C 36.6°F2.6°C 99% 1.6 mph NE2.6 kmh NE 13.0 mph20.9 kmh 29.33 in993.2 mb 0.00 in0.0 mm 0.00 in0.0 mm 0.00 in0.0 mm
10:45 AM 36.7°F2.6°C 36.4°F2.4°C 99% 4.5 mph NE7.2 kmh NE 17.4 mph28.0 kmh 29.33 in993.2 mb 0.00 in0.0 mm 0.00 in0.0 mm 0.00 in0.0 mm
11:00 AM 36.5°F2.5°C 36.2°F2.3°C 99% 5.4 mph NE8.7 kmh NE 19.7 mph31.7 kmh 29.33 in993.2 mb 0.00 in0.0 mm 0.00 in0.0 mm 0.00 in0.0 mm
11:15 AM 36.3°F2.4°C 36.1°F2.3°C 99% 0.7 mph NE1.1 kmh NE 13.0 mph20.9 kmh 29.34 in993.6 mb 0.00 in0.0 mm 0.00 in0.0 mm 0.00 in0.0 mm
11:30 AM 36.3°F2.4°C 36.1°F2.3°C 99% 2.2 mph NE3.5 kmh NE 19.0 mph30.6 kmh 29.34 in993.6 mb 0.00 in0.0 mm 0.00 in0.0 mm 0.00 in0.0 mm
11:45 AM 36.3°F2.4°C 36.1°F2.3°C 99% 11.4 mph ENE18.3 kmh ENE 17.4 mph28.0 kmh 29.34 in993.6 mb 0.00 in0.0 mm 0.00 in0.0 mm 0.00 in0.0 mm
12:00 PM 36.5°F2.5°C 36.2°F2.3°C 99% 4.5 mph ENE7.2 kmh ENE 13.0 mph20.9 kmh 29.34 in993.6 mb 0.01 in0.3 mm 0.01 in0.3 mm 0.01 in0.3 mm
12:15 PM 36.9°F2.7°C 36.6°F2.6°C 99% Calm Calm 12.1 mph19.5 kmh 29.34 in993.6 mb 0.01 in0.3 mm 0.00 in0.0 mm 0.01 in0.3 mm
12:30 PM 37.2°F2.9°C 37.0°F2.8°C 99% Calm Calm 16.8 mph27.0 kmh 29.34 in993.6 mb 0.01 in0.3 mm 0.00 in0.0 mm 0.01 in0.3 mm
12:45 PM 37.4°F3.0°C 37.1°F2.8°C 99% 0.7 mph NE1.1 kmh NE 15.9 mph25.6 kmh 29.34 in993.6 mb 0.01 in0.3 mm 0.00 in0.0 mm 0.01 in0.3 mm
01:00 PM 37.6°F3.1°C 37.3°F2.9°C 99% 0.7 mph NE1.1 kmh NE 16.8 mph27.0 kmh 29.34 in993.6 mb 0.00 in0.0 mm 0.00 in0.0 mm 0.01 in0.3 mm
01:15 PM 37.9°F3.3°C 37.7°F3.2°C 99% 0.7 mph NE1.1 kmh NE 15.2 mph24.5 kmh 29.33 in993.2 mb 0.00 in0.0 mm 0.00 in0.0 mm 0.01 in0.3 mm
01:30 PM 38.3°F3.5°C 38.0°F3.3°C 99% 7.6 mph NE12.2 kmh NE 15.9 mph25.6 kmh 29.34 in993.6 mb 0.00 in0.0 mm 0.00 in0.0 mm 0.01 in0.3 mm
01:45 PM 38.8°F3.8°C 38.6°F3.7°C 99% 0.7 mph NE1.1 kmh NE 16.8 mph27.0 kmh 29.34 in993.6 mb 0.00 in0.0 mm 0.00 in0.0 mm 0.01 in0.3 mm
02:00 PM 38.8°F3.8°C 38.6°F3.7°C 99% 3.1 mph NE5.0 kmh NE 13.6 mph21.9 kmh 29.35 in993.9 mb 0.00 in0.0 mm 0.00 in0.0 mm 0.01 in0.3 mm
02:15 PM 38.8°F3.8°C 38.6°F3.7°C 99% 3.1 mph NE5.0 kmh NE 10.7 mph17.2 kmh 29.35 in993.9 mb 0.00 in0.0 mm 0.00 in0.0 mm 0.01 in0.3 mm
02:30 PM 38.7°F3.7°C 38.4°F3.6°C 99% 0.7 mph NE1.1 kmh NE 13.0 mph20.9 kmh 29.35 in993.9 mb 0.00 in0.0 mm 0.00 in0.0 mm 0.01 in0.3 mm
02:45 PM 38.5°F3.6°C 38.2°F3.4°C 99% 3.1 mph NE5.0 kmh NE 12.1 mph19.5 kmh 29.36 in994.2 mb 0.00 in0.0 mm 0.00 in0.0 mm 0.01 in0.3 mm
03:00 PM 38.5°F3.6°C 38.2°F3.4°C 99% Calm Calm 15.9 mph25.6 kmh 29.36 in994.2 mb 0.00 in0.0 mm 0.00 in0.0 mm 0.01 in0.3 mm
03:15 PM 38.3°F3.5°C 38.0°F3.3°C 99% Calm Calm 9.8 mph15.8 kmh 29.36 in994.2 mb 0.00 in0.0 mm 0.00 in0.0 mm 0.01 in0.3 mm
03:30 PM 38.3°F3.5°C 38.0°F3.3°C 99% Calm Calm 0.7 mph1.1 kmh 29.37 in994.6 mb 0.00 in0.0 mm 0.00 in0.0 mm 0.01 in0.3 mm
03:45 PM 38.1°F3.4°C 37.9°F3.3°C 99% Calm Calm 0.7 mph1.1 kmh 29.38 in994.9 mb 0.00 in0.0 mm 0.00 in0.0 mm 0.01 in0.3 mm
04:00 PM 37.8°F3.2°C 37.5°F3.1°C 99% Calm Calm -- 29.39 in995.3 mb 0.00 in0.0 mm 0.00 in0.0 mm 0.01 in0.3 mm
04:15 PM 37.6°F3.1°C 37.3°F2.9°C 99% Calm Calm -- 29.39 in995.3 mb 0.00 in0.0 mm 0.00 in0.0 mm 0.01 in0.3 mm
04:30 PM 37.4°F3.0°C 37.1°F2.8°C 99% Calm Calm 0.7 mph1.1 kmh 29.39 in995.3 mb 0.01 in0.3 mm 0.04 in1.0 mm 0.02 in0.5 mm
04:45 PM 37.2°F2.9°C 37.0°F2.8°C 99% Calm Calm -- 29.40 in995.6 mb 0.01 in0.3 mm 0.00 in0.0 mm 0.02 in0.5 mm
05:00 PM 37.2°F2.9°C 37.0°F2.8°C 99% Calm Calm -- 29.40 in995.6 mb 0.01 in0.3 mm 0.00 in0.0 mm 0.02 in0.5 mm
05:15 PM 37.0°F2.8°C 36.8°F2.7°C 99% Calm Calm 0.7 mph1.1 kmh 29.41 in995.9 mb 0.01 in0.3 mm 0.00 in0.0 mm 0.02 in0.5 mm
05:30 PM 36.9°F2.7°C 36.6°F2.6°C 99% Calm Calm -- 29.41 in995.9 mb 0.01 in0.3 mm 0.00 in0.0 mm 0.04 in1.0 mm
05:45 PM 36.9°F2.7°C 36.6°F2.6°C 99% Calm Calm -- 29.41 in995.9 mb 0.01 in0.3 mm 0.00 in0.0 mm 0.04 in1.0 mm
06:00 PM 36.7°F2.6°C 36.4°F2.4°C 99% Calm Calm 10.7 mph17.2 kmh 29.41 in995.9 mb 0.01 in0.3 mm 0.00 in0.0 mm 0.04 in1.0 mm
06:15 PM 36.5°F2.5°C 36.2°F2.3°C 99% Calm Calm 5.4 mph8.7 kmh 29.42 in996.3 mb 0.01 in0.3 mm 0.00 in0.0 mm 0.04 in1.0 mm
06:30 PM 36.7°F2.6°C 36.4°F2.4°C 99% 0.7 mph NE1.1 kmh NE 9.2 mph14.8 kmh 29.42 in996.3 mb 0.00 in0.0 mm 0.00 in0.0 mm 0.04 in1.0 mm
06:45 PM 36.7°F2.6°C 36.4°F2.4°C 99% Calm Calm 8.3 mph13.4 kmh 29.42 in996.3 mb 0.00 in0.0 mm 0.00 in0.0 mm 0.04 in1.0 mm
07:00 PM 36.3°F2.4°C 36.1°F2.3°C 99% Calm Calm -- 29.42 in996.3 mb 0.00 in0.0 mm 0.00 in0.0 mm 0.04 in1.0 mm
07:15 PM 36.1°F2.3°C 35.9°F2.2°C 99% Calm Calm -- 29.42 in996.3 mb 0.00 in0.0 mm 0.00 in0.0 mm 0.04 in1.0 mm
07:30 PM 36.0°F2.2°C 35.7°F2.1°C 99% Calm Calm -- 29.42 in996.3 mb 0.00 in0.0 mm 0.00 in0.0 mm 0.04 in1.0 mm
07:45 PM 35.8°F2.1°C 35.5°F1.9°C 99% Calm Calm -- 29.43 in996.6 mb 0.00 in0.0 mm 0.00 in0.0 mm 0.04 in1.0 mm
08:00 PM 35.8°F2.1°C 35.5°F1.9°C 99% Calm Calm -- 29.43 in996.6 mb 0.00 in0.0 mm 0.00 in0.0 mm 0.04 in1.0 mm
08:15 PM 36.1°F2.3°C 35.9°F2.2°C 99% Calm Calm -- 29.44 in997.0 mb 0.00 in0.0 mm 0.00 in0.0 mm 0.04 in1.0 mm
08:30 PM 36.3°F2.4°C 36.1°F2.3°C 99% Calm Calm 0.7 mph1.1 kmh 29.43 in996.6 mb 0.00 in0.0 mm 0.00 in0.0 mm 0.04 in1.0 mm
08:45 PM 36.3°F2.4°C 36.1°F2.3°C 99% Calm Calm 0.7 mph1.1 kmh 29.44 in997.0 mb 0.00 in0.0 mm 0.00 in0.0 mm 0.04 in1.0 mm
09:00 PM 36.3°F2.4°C 36.1°F2.3°C 99% Calm Calm 3.1 mph5.0 kmh 29.43 in996.6 mb 0.00 in0.0 mm 0.00 in0.0 mm 0.04 in1.0 mm
09:15 PM 36.1°F2.3°C 35.9°F2.2°C 99% Calm Calm -- 29.43 in996.6 mb 0.00 in0.0 mm 0.00 in0.0 mm 0.04 in1.0 mm
09:30 PM 36.3°F2.4°C 36.1°F2.3°C 99% Calm Calm 2.2 mph3.5 kmh 29.43 in996.6 mb 0.00 in0.0 mm 0.00 in0.0 mm 0.04 in1.0 mm
09:45 PM 36.3°F2.4°C 36.1°F2.3°C 99% Calm Calm -- 29.43 in996.6 mb 0.00 in0.0 mm 0.00 in0.0 mm 0.04 in1.0 mm
10:00 PM 36.3°F2.4°C 36.1°F2.3°C 99% Calm Calm 0.7 mph1.1 kmh 29.44 in997.0 mb 0.00 in0.0 mm 0.00 in0.0 mm 0.04 in1.0 mm
10:15 PM 36.1°F2.3°C 35.9°F2.2°C 99% Calm Calm 1.6 mph2.6 kmh 29.44 in997.0 mb 0.00 in0.0 mm 0.00 in0.0 mm 0.04 in1.0 mm
10:30 PM 35.8°F2.1°C 35.5°F1.9°C 99% Calm Calm -- 29.44 in997.0 mb 0.00 in0.0 mm 0.00 in0.0 mm 0.04 in1.0 mm
10:45 PM 35.8°F2.1°C 35.5°F1.9°C 99% Calm Calm -- 29.44 in997.0 mb 0.00 in0.0 mm 0.00 in0.0 mm 0.04 in1.0 mm
11:00 PM 35.6°F2.0°C 35.4°F1.9°C 99% Calm Calm 2.2 mph3.5 kmh 29.45 in997.3 mb 0.00 in0.0 mm 0.00 in0.0 mm 0.04 in1.0 mm
11:15 PM 35.6°F2.0°C 35.4°F1.9°C 99% Calm Calm -- 29.45 in997.3 mb 0.00 in0.0 mm 0.00 in0.0 mm 0.04 in1.0 mm
11:30 PM 35.4°F1.9°C 35.2°F1.8°C 99% Calm Calm -- 29.45 in997.3 mb 0.00 in0.0 mm 0.00 in0.0 mm 0.04 in1.0 mm
11:45 PM 35.2°F1.8°C 35.0°F1.7°C 99% Calm Calm -- 29.45 in997.3 mb 0.00 in0.0 mm 0.00 in0.0 mm 0.04 in1.0 mm